createdAt,value
2018-03-22T00:00:19.087Z,3.57
2018-03-22T00:02:48.635Z,5.30
2018-03-22T00:05:18.487Z,6.50
2018-03-22T00:07:48.136Z,6.17
2018-03-22T00:10:17.764Z,3.57
2018-03-22T00:12:47.279Z,2.03
2018-03-22T00:15:16.792Z,3.20
2018-03-22T00:17:46.319Z,3.03
2018-03-22T00:20:15.859Z,3.40
2018-03-22T00:22:45.379Z,3.67
2018-03-22T00:25:14.979Z,2.93
2018-03-22T00:27:44.545Z,3.53
2018-03-22T00:30:14.068Z,3.63
2018-03-22T00:32:43.695Z,2.90
2018-03-22T00:35:13.270Z,2.87
2018-03-22T00:37:42.843Z,2.27
2018-03-22T00:40:12.376Z,2.83
2018-03-22T00:42:41.917Z,2.70
2018-03-22T00:45:17.509Z,1.87
2018-03-22T00:47:51.837Z,2.33
2018-03-22T00:50:21.338Z,2.50
2018-03-22T00:52:50.870Z,3.40
2018-03-22T00:55:20.359Z,2.93
2018-03-22T00:57:49.927Z,2.90
2018-03-22T01:00:19.515Z,3.57
2018-03-22T01:02:49.018Z,3.00
2018-03-22T01:05:18.558Z,2.90
2018-03-22T01:07:48.092Z,3.30
2018-03-22T01:10:17.629Z,2.70
2018-03-22T01:12:47.172Z,2.47
2018-03-22T01:15:16.681Z,3.00
2018-03-22T01:17:52.448Z,2.40
2018-03-22T01:20:21.964Z,2.40
2018-03-22T01:22:54.515Z,2.23
2018-03-22T01:25:24.055Z,1.90
2018-03-22T01:27:53.563Z,2.40
2018-03-22T01:30:28.831Z,2.43
2018-03-22T01:32:58.358Z,2.47
2018-03-22T01:35:27.857Z,2.47
2018-03-22T01:37:57.402Z,2.20
2018-03-22T01:40:26.955Z,2.40
2018-03-22T01:42:56.529Z,2.37
2018-03-22T01:45:26.065Z,2.50
2018-03-22T01:47:55.616Z,2.53
2018-03-22T01:50:25.110Z,2.57
2018-03-22T01:53:00.331Z,2.30
2018-03-22T01:55:29.850Z,2.73
2018-03-22T01:57:59.522Z,2.70
2018-03-22T02:00:29.061Z,2.50
2018-03-22T02:02:58.634Z,2.20
2018-03-22T02:05:28.318Z,2.17
2018-03-22T02:07:57.882Z,2.43
2018-03-22T02:10:27.469Z,2.50
2018-03-22T02:13:04.066Z,2.30
2018-03-22T02:15:33.646Z,2.60
2018-03-22T02:18:03.197Z,2.00
2018-03-22T02:20:32.750Z,2.20
2018-03-22T02:23:02.339Z,2.30
2018-03-22T02:25:31.880Z,2.40
2018-03-22T02:28:06.307Z,2.70
2018-03-22T02:30:35.984Z,2.17
2018-03-22T02:33:05.666Z,2.63
2018-03-22T02:35:35.240Z,2.33
2018-03-22T02:38:04.809Z,2.57
2018-03-22T02:40:34.410Z,2.80
2018-03-22T02:43:04.052Z,1.90
2018-03-22T02:45:33.698Z,2.50
2018-03-22T02:48:03.268Z,2.73
2018-03-22T02:50:33.557Z,3.00
2018-03-22T02:53:03.066Z,2.70
2018-03-22T02:55:36.673Z,2.40
2018-03-22T02:58:06.357Z,2.23
2018-03-22T03:00:35.930Z,2.47
2018-03-22T03:03:05.520Z,2.23
2018-03-22T03:05:35.134Z,2.40
2018-03-22T03:08:04.783Z,2.03
2018-03-22T03:10:34.966Z,2.50
2018-03-22T03:13:04.618Z,2.53
2018-03-22T03:15:41.207Z,2.83
2018-03-22T03:18:10.852Z,2.63
2018-03-22T03:20:40.414Z,2.50
2018-03-22T03:23:16.112Z,2.30
2018-03-22T03:25:45.880Z,2.73
2018-03-22T03:28:15.375Z,2.57
2018-03-22T03:30:45.021Z,2.20
2018-03-22T03:33:14.640Z,2.57
2018-03-22T03:35:44.276Z,2.37
2018-03-22T03:38:13.802Z,2.70
2018-03-22T03:40:49.379Z,2.37
2018-03-22T03:43:18.895Z,3.00
2018-03-22T03:45:48.521Z,2.60
2018-03-22T03:48:18.164Z,2.80
2018-03-22T03:50:47.749Z,2.70
2018-03-22T03:53:24.611Z,2.80
2018-03-22T03:55:54.301Z,3.03
2018-03-22T03:58:23.839Z,2.70
2018-03-22T04:00:53.411Z,3.20
2018-03-22T04:03:22.974Z,2.60
2018-03-22T04:05:52.550Z,2.80
2018-03-22T04:08:22.095Z,2.70
2018-03-22T04:10:51.654Z,2.80
2018-03-22T04:13:21.199Z,2.77
2018-03-22T04:15:50.670Z,2.90
2018-03-22T04:18:23.215Z,2.77
2018-03-22T04:20:52.751Z,2.80
2018-03-22T04:23:22.310Z,2.97
2018-03-22T04:25:51.875Z,3.30
2018-03-22T04:28:21.408Z,2.83
2018-03-22T04:30:50.935Z,3.47
2018-03-22T04:33:20.517Z,3.10
2018-03-22T04:36:06.404Z,3.27
2018-03-22T04:38:35.951Z,3.60
2018-03-22T04:41:05.461Z,2.73
2018-03-22T04:43:35.018Z,3.50
2018-03-22T04:46:04.520Z,3.37
2018-03-22T04:48:46.303Z,3.10
2018-03-22T04:51:21.827Z,2.80
2018-03-22T04:53:51.335Z,2.80
2018-03-22T04:56:21.101Z,4.23
2018-03-22T04:58:50.642Z,2.67
2018-03-22T05:01:21.962Z,3.03
2018-03-22T05:03:51.438Z,3.20
2018-03-22T05:06:20.944Z,3.37
2018-03-22T05:08:50.462Z,3.27
2018-03-22T05:11:20.016Z,3.17
2018-03-22T05:13:49.591Z,2.63
2018-03-22T05:16:25.171Z,3.00
2018-03-22T05:19:01.812Z,3.67
2018-03-22T05:21:37.433Z,3.70
2018-03-22T05:24:19.120Z,2.87
2018-03-22T05:26:48.715Z,2.90
2018-03-22T05:29:18.278Z,3.57
2018-03-22T05:31:47.799Z,3.27
2018-03-22T05:34:17.741Z,3.30
2018-03-22T05:36:47.261Z,3.57
2018-03-22T05:39:16.812Z,3.03
2018-03-22T05:41:46.647Z,2.97
2018-03-22T05:44:16.194Z,2.60
2018-03-22T05:46:45.697Z,3.20
2018-03-22T05:49:22.293Z,3.27
2018-03-22T05:51:52.218Z,3.13
2018-03-22T05:54:21.795Z,3.67
2018-03-22T05:56:51.350Z,3.70
2018-03-22T05:59:28.065Z,3.93
2018-03-22T06:01:57.626Z,3.40
2018-03-22T06:04:27.185Z,4.00
2018-03-22T06:06:56.762Z,4.00
2018-03-22T06:09:26.611Z,3.07
2018-03-22T06:11:56.519Z,3.37
2018-03-22T06:14:26.067Z,3.20
2018-03-22T06:17:15.611Z,3.00
2018-03-22T06:19:45.247Z,3.23
2018-03-22T06:22:14.798Z,2.80
2018-03-22T06:24:44.358Z,3.03
2018-03-22T06:27:15.512Z,3.87
2018-03-22T06:29:45.166Z,3.23
2018-03-22T06:32:14.708Z,3.17
2018-03-22T06:34:44.302Z,3.30
2018-03-22T06:37:13.879Z,3.30
2018-03-22T06:39:43.711Z,3.13
2018-03-22T06:42:13.239Z,3.00
2018-03-22T06:44:42.879Z,2.63
2018-03-22T06:47:12.450Z,2.40
2018-03-22T06:49:43.764Z,3.07
2018-03-22T06:52:13.263Z,3.03
2018-03-22T06:54:43.370Z,2.40
2018-03-22T06:57:12.865Z,2.50
2018-03-22T06:59:42.390Z,2.83
2018-03-22T07:02:11.900Z,3.63
2018-03-22T07:04:48.436Z,3.67
2018-03-22T07:07:18.057Z,3.17
2018-03-22T07:09:47.662Z,3.50
2018-03-22T07:12:17.209Z,5.37
2018-03-22T07:14:46.758Z,3.23
2018-03-22T07:17:16.292Z,3.47
2018-03-22T07:19:45.853Z,3.93
2018-03-22T07:22:15.391Z,3.13
2018-03-22T07:24:44.907Z,3.90
2018-03-22T07:27:14.450Z,3.57
2018-03-22T07:29:44.002Z,2.80
2018-03-22T07:32:13.562Z,3.63
2018-03-22T07:34:43.095Z,3.50
2018-03-22T07:37:13.403Z,3.40
2018-03-22T07:39:49.167Z,3.03
2018-03-22T07:42:18.767Z,3.20
2018-03-22T07:44:48.394Z,3.70
2018-03-22T07:47:18.065Z,3.37
2018-03-22T07:49:47.559Z,3.50
2018-03-22T07:52:17.136Z,2.63
2018-03-22T07:54:46.915Z,2.87
2018-03-22T07:57:16.483Z,3.30
2018-03-22T07:59:46.090Z,3.17
2018-03-22T08:02:15.648Z,2.90
2018-03-22T08:04:45.444Z,3.10
2018-03-22T08:07:19.563Z,2.53
2018-03-22T08:09:49.118Z,3.27
2018-03-22T08:12:18.668Z,3.33
2018-03-22T08:14:48.208Z,3.50
2018-03-22T08:17:17.742Z,3.43
2018-03-22T08:19:47.314Z,3.90
2018-03-22T08:22:16.820Z,3.23
2018-03-22T08:24:48.850Z,2.30
2018-03-22T08:27:18.431Z,2.73
2018-03-22T08:29:52.240Z,2.87
2018-03-22T08:32:21.864Z,3.23
2018-03-22T08:34:51.408Z,2.70
2018-03-22T08:37:20.954Z,1.90
2018-03-22T08:39:50.516Z,1.80
2018-03-22T08:42:22.302Z,2.50
2018-03-22T08:44:52.339Z,2.00
2018-03-22T08:47:22.068Z,2.47
2018-03-22T08:49:51.580Z,2.00
2018-03-22T08:52:21.084Z,2.77
2018-03-22T08:54:50.628Z,2.03
2018-03-22T08:57:20.177Z,2.67
2018-03-22T08:59:49.747Z,1.80
2018-03-22T09:02:19.239Z,1.80
2018-03-22T09:04:48.790Z,2.40
2018-03-22T09:07:18.345Z,2.30
2018-03-22T09:09:47.952Z,2.07
2018-03-22T09:12:17.546Z,2.47
2018-03-22T09:14:47.126Z,2.30
2018-03-22T09:17:16.654Z,3.43
2018-03-22T09:19:46.154Z,2.13
2018-03-22T09:22:15.705Z,2.33
2018-03-22T09:24:45.202Z,2.60
2018-03-22T09:27:14.766Z,3.13
2018-03-22T09:29:44.271Z,3.00
2018-03-22T09:32:21.148Z,2.63
2018-03-22T09:34:50.718Z,3.03
2018-03-22T09:37:20.243Z,2.40
2018-03-22T09:39:49.733Z,3.80
2018-03-22T09:42:19.275Z,3.70
2018-03-22T09:44:49.004Z,3.47
2018-03-22T09:47:18.558Z,3.43
2018-03-22T09:49:55.759Z,4.20
2018-03-22T09:52:25.287Z,4.07
2018-03-22T09:54:54.851Z,3.43
2018-03-22T09:57:24.455Z,3.67
2018-03-22T09:59:54.036Z,3.10
2018-03-22T10:02:24.159Z,3.70
2018-03-22T10:04:53.808Z,3.60
2018-03-22T10:07:23.349Z,4.03
2018-03-22T10:10:05.566Z,3.10
2018-03-22T10:12:36.160Z,2.90
2018-03-22T10:15:05.784Z,3.93
2018-03-22T10:17:35.317Z,3.47
2018-03-22T10:20:10.894Z,3.80
2018-03-22T10:22:40.436Z,3.10
2018-03-22T10:25:10.099Z,3.70
2018-03-22T10:27:39.661Z,3.67
2018-03-22T10:30:17.311Z,3.80
2018-03-22T10:32:51.103Z,3.90
2018-03-22T10:35:20.625Z,4.20
2018-03-22T10:38:06.896Z,4.03
2018-03-22T10:40:37.436Z,3.30
2018-03-22T10:43:08.067Z,2.97
2018-03-22T10:45:37.583Z,3.47
2018-03-22T10:48:07.078Z,4.03
2018-03-22T10:50:36.644Z,4.07
2018-03-22T10:53:08.011Z,4.93
2018-03-22T10:55:37.604Z,3.00
2018-03-22T10:58:14.899Z,3.50
2018-03-22T11:00:56.178Z,3.27
2018-03-22T11:03:27.827Z,3.10
2018-03-22T11:05:57.552Z,3.23
2018-03-22T11:08:27.093Z,4.20
2018-03-22T11:10:56.638Z,3.20
2018-03-22T11:13:26.199Z,3.33
2018-03-22T11:15:55.718Z,3.20
2018-03-22T11:18:33.012Z,3.40
2018-03-22T11:21:03.507Z,2.90
2018-03-22T11:23:39.164Z,2.80
2018-03-22T11:26:08.741Z,2.67
2018-03-22T11:28:38.287Z,2.63
2018-03-22T11:31:11.644Z,3.20
2018-03-22T11:33:41.181Z,3.10
2018-03-22T11:36:10.715Z,3.37
2018-03-22T11:38:40.275Z,2.60
2018-03-22T11:41:09.764Z,3.13
2018-03-22T11:43:39.308Z,2.97
2018-03-22T11:46:21.001Z,3.20
2018-03-22T11:48:50.548Z,3.40
2018-03-22T11:51:20.122Z,3.37
2018-03-22T11:53:49.873Z,3.47
2018-03-22T11:56:19.382Z,3.10
2018-03-22T11:59:02.537Z,3.00
2018-03-22T12:01:32.087Z,3.97
2018-03-22T12:04:02.530Z,3.37
2018-03-22T12:06:32.103Z,3.53
2018-03-22T12:09:01.654Z,3.43
2018-03-22T12:11:31.208Z,4.07
2018-03-22T12:14:00.770Z,4.30
2018-03-22T12:16:30.320Z,4.17
2018-03-22T12:18:59.874Z,3.90
2018-03-22T12:21:30.746Z,3.90
2018-03-22T12:24:13.685Z,4.17
2018-03-22T12:26:43.264Z,4.20
2018-03-22T12:29:25.878Z,4.30
2018-03-22T12:31:55.410Z,3.63
2018-03-22T12:34:31.116Z,3.50
2018-03-22T12:37:00.705Z,4.40
2018-03-22T12:39:31.591Z,3.57
2018-03-22T12:42:08.374Z,3.90
2018-03-22T12:44:41.039Z,4.00
2018-03-22T12:47:10.584Z,3.47
2018-03-22T12:49:40.132Z,3.80
2018-03-22T12:52:09.690Z,3.30
2018-03-22T12:54:39.269Z,3.30
2018-03-22T12:57:08.799Z,3.40
2018-03-22T12:59:38.336Z,2.53
2018-03-22T13:02:08.002Z,2.93
2018-03-22T13:04:37.501Z,3.10
2018-03-22T13:07:07.210Z,4.10
2018-03-22T13:09:36.787Z,4.03
2018-03-22T13:12:06.507Z,3.50
2018-03-22T13:14:36.015Z,3.20
2018-03-22T13:17:05.599Z,2.97
2018-03-22T13:19:35.075Z,3.27
2018-03-22T13:22:04.592Z,4.13
2018-03-22T13:24:34.161Z,3.20
2018-03-22T13:27:03.739Z,3.00
2018-03-22T13:29:33.294Z,2.90
2018-03-22T13:32:02.862Z,3.20
2018-03-22T13:34:32.594Z,1.83
2018-03-22T13:37:02.176Z,2.40
2018-03-22T13:39:31.697Z,2.83
2018-03-22T13:42:01.275Z,2.47
2018-03-22T13:44:30.843Z,3.83
2018-03-22T13:47:00.396Z,3.43
2018-03-22T13:49:29.910Z,3.80
2018-03-22T13:51:59.448Z,1.90
2018-03-22T13:54:29.055Z,1.97
2018-03-22T13:56:58.878Z,2.30
2018-03-22T13:59:29.314Z,2.33
2018-03-22T14:01:58.908Z,2.53
2018-03-22T14:04:28.422Z,3.10
2018-03-22T14:06:57.982Z,4.67
2018-03-22T14:09:27.570Z,2.53
2018-03-22T14:11:57.150Z,2.57
2018-03-22T14:14:26.689Z,1.90
2018-03-22T14:16:56.196Z,3.10
2018-03-22T14:19:25.726Z,2.60
2018-03-22T14:21:55.261Z,2.67
2018-03-22T14:24:24.815Z,2.17
2018-03-22T14:26:54.387Z,2.23
2018-03-22T14:29:26.912Z,2.30
2018-03-22T14:31:56.467Z,1.80
2018-03-22T14:34:25.984Z,1.60
2018-03-22T14:36:55.558Z,1.60
2018-03-22T14:39:25.124Z,1.80
2018-03-22T14:41:54.763Z,1.90
2018-03-22T14:44:24.323Z,1.80
2018-03-22T14:46:53.880Z,1.80
2018-03-22T14:49:29.427Z,2.40
2018-03-22T14:52:06.841Z,1.97
2018-03-22T14:54:36.862Z,2.53
2018-03-22T14:57:07.442Z,2.00
2018-03-22T14:59:37.792Z,1.70
2018-03-22T15:02:07.346Z,1.92
2018-03-22T15:04:36.907Z,1.83
2018-03-22T15:07:06.459Z,1.50
2018-03-22T15:09:45.961Z,3.50
2018-03-22T15:12:15.510Z,2.10
2018-03-22T15:14:45.066Z,1.83
2018-03-22T15:17:14.638Z,1.87
2018-03-22T15:19:44.203Z,1.90
2018-03-22T15:22:13.741Z,2.63
2018-03-22T15:24:43.360Z,4.20
2018-03-22T15:27:12.872Z,3.23
2018-03-22T15:29:42.383Z,1.73
2018-03-22T15:32:11.904Z,2.00
2018-03-22T15:34:42.716Z,2.93
2018-03-22T15:37:18.420Z,1.80
2018-03-22T15:39:47.995Z,1.90
2018-03-22T15:42:18.854Z,2.30
2018-03-22T15:44:48.410Z,1.93
2018-03-22T15:47:17.919Z,1.80
2018-03-22T15:49:47.414Z,1.90
2018-03-22T15:52:16.978Z,3.53
2018-03-22T15:54:46.502Z,2.40
2018-03-22T15:57:16.102Z,1.90
2018-03-22T15:59:45.665Z,1.83
2018-03-22T16:02:15.220Z,1.90
2018-03-22T16:04:44.844Z,1.83
2018-03-22T16:07:14.451Z,1.50
2018-03-22T16:09:43.978Z,2.53
2018-03-22T16:12:13.512Z,2.10
2018-03-22T16:14:43.459Z,1.77
2018-03-22T16:17:13.169Z,1.80
2018-03-22T16:19:50.192Z,2.50
2018-03-22T16:22:19.743Z,1.77
2018-03-22T16:25:02.032Z,1.70
2018-03-22T16:27:31.574Z,1.70
2018-03-22T16:30:01.133Z,2.53
2018-03-22T16:32:34.215Z,2.43
2018-03-22T16:35:03.799Z,1.80
2018-03-22T16:37:33.367Z,2.60
2018-03-22T16:40:02.939Z,2.47
2018-03-22T16:42:32.551Z,1.80
2018-03-22T16:45:02.106Z,2.27
2018-03-22T16:47:31.821Z,2.00
2018-03-22T16:50:08.496Z,2.00
2018-03-22T16:52:38.025Z,2.20
2018-03-22T16:55:07.536Z,2.20
2018-03-22T16:57:37.076Z,2.80
2018-03-22T17:00:12.668Z,2.60
2018-03-22T17:02:44.193Z,2.00
2018-03-22T17:05:14.023Z,2.40
2018-03-22T17:07:43.544Z,2.00
2018-03-22T17:10:13.092Z,1.93
2018-03-22T17:12:42.603Z,1.70
2018-03-22T17:15:12.146Z,1.90
2018-03-22T17:17:41.669Z,1.70
2018-03-22T17:20:12.007Z,5.00
2018-03-22T17:22:42.843Z,3.33
2018-03-22T17:25:14.587Z,2.20
2018-03-22T17:27:49.352Z,2.13
2018-03-22T17:30:19.564Z,1.80
2018-03-22T17:32:50.805Z,1.90
2018-03-22T17:35:20.584Z,1.90
2018-03-22T17:37:50.138Z,2.10
2018-03-22T17:40:21.147Z,2.27
2018-03-22T17:42:50.710Z,2.90
2018-03-22T17:45:20.216Z,2.00
2018-03-22T17:47:49.863Z,1.50
2018-03-22T17:50:19.415Z,2.10
2018-03-22T17:52:48.961Z,2.90
2018-03-22T17:55:25.204Z,2.20
2018-03-22T17:57:54.829Z,1.93
2018-03-22T18:00:24.414Z,3.43
2018-03-22T18:02:54.006Z,2.23
2018-03-22T18:05:23.494Z,2.30
2018-03-22T18:07:53.230Z,2.43
2018-03-22T18:10:22.783Z,3.20
2018-03-22T18:12:59.730Z,3.20
2018-03-22T18:15:29.558Z,1.80
2018-03-22T18:18:12.917Z,2.40
2018-03-22T18:20:42.542Z,2.50
2018-03-22T18:23:12.063Z,2.23
2018-03-22T18:25:41.798Z,2.73
2018-03-22T18:28:11.739Z,3.30
2018-03-22T18:30:41.288Z,3.10
2018-03-22T18:33:10.839Z,2.40
2018-03-22T18:35:40.462Z,2.00
2018-03-22T18:38:09.950Z,1.97
2018-03-22T18:40:41.164Z,1.60
2018-03-22T18:43:11.855Z,2.13
2018-03-22T18:45:41.510Z,1.60
2018-03-22T18:48:11.535Z,1.83
2018-03-22T18:50:41.089Z,2.60
2018-03-22T18:53:10.726Z,1.90
2018-03-22T18:55:40.294Z,2.03
2018-03-22T18:58:09.838Z,2.07
2018-03-22T19:00:39.398Z,2.27
2018-03-22T19:03:09.058Z,2.03
2018-03-22T19:05:46.785Z,2.17
2018-03-22T19:08:17.285Z,2.00
2018-03-22T19:10:47.508Z,2.73
2018-03-22T19:13:17.088Z,2.13
2018-03-22T19:15:46.708Z,2.07
2018-03-22T19:18:16.279Z,2.10
2018-03-22T19:20:45.846Z,1.87
2018-03-22T19:23:15.528Z,2.13
2018-03-22T19:25:45.443Z,2.43
2018-03-22T19:28:15.196Z,2.40
2018-03-22T19:30:44.715Z,2.07
2018-03-22T19:33:14.367Z,2.50
2018-03-22T19:35:44.586Z,2.70
2018-03-22T19:38:14.170Z,2.07
2018-03-22T19:40:43.758Z,2.27
2018-03-22T19:43:13.353Z,1.90
2018-03-22T19:45:43.006Z,1.97
2018-03-22T19:48:12.534Z,2.00
2018-03-22T19:50:42.078Z,2.23
2018-03-22T19:53:11.647Z,1.83
2018-03-22T19:55:41.199Z,2.07
2018-03-22T19:58:11.210Z,2.93
2018-03-22T20:00:42.377Z,2.30
2018-03-22T20:03:11.895Z,1.90
2018-03-22T20:05:41.433Z,2.13
2018-03-22T20:08:11.302Z,2.40
2018-03-22T20:10:41.944Z,1.90
2018-03-22T20:13:11.466Z,1.70
2018-03-22T20:15:41.301Z,1.97
2018-03-22T20:18:10.886Z,2.20
2018-03-22T20:20:40.559Z,1.67
2018-03-22T20:23:10.104Z,2.00
2018-03-22T20:25:39.657Z,1.93
2018-03-22T20:28:09.202Z,1.80
2018-03-22T20:30:38.754Z,1.80
2018-03-22T20:33:08.311Z,1.90
2018-03-22T20:35:37.884Z,2.80
2018-03-22T20:38:07.616Z,1.80
2018-03-22T20:40:37.173Z,1.90
2018-03-22T20:43:06.903Z,1.57
2018-03-22T20:45:36.461Z,1.70
2018-03-22T20:48:06.011Z,1.70
2018-03-22T20:50:35.558Z,1.90
2018-03-22T20:53:05.077Z,2.33
2018-03-22T20:55:34.924Z,1.73
2018-03-22T20:58:04.473Z,1.60
2018-03-22T21:00:34.284Z,2.30
2018-03-22T21:03:05.711Z,2.00
2018-03-22T21:05:35.432Z,1.77
2018-03-22T21:08:05.245Z,1.70
2018-03-22T21:10:34.851Z,2.00
2018-03-22T21:13:05.143Z,1.53
2018-03-22T21:15:34.698Z,2.53
2018-03-22T21:18:04.352Z,1.60
2018-03-22T21:20:33.907Z,2.10
2018-03-22T21:23:03.538Z,1.83
2018-03-22T21:25:33.122Z,1.93
2018-03-22T21:28:02.663Z,2.00
2018-03-22T21:30:32.219Z,2.10
2018-03-22T21:33:02.059Z,1.90
2018-03-22T21:35:31.611Z,1.63
2018-03-22T21:38:01.238Z,2.07
2018-03-22T21:40:36.113Z,2.10
2018-03-22T21:43:05.660Z,1.90
2018-03-22T21:45:35.245Z,2.13
2018-03-22T21:48:04.798Z,2.00
2018-03-22T21:50:40.098Z,2.07
2018-03-22T21:53:16.445Z,2.80
2018-03-22T21:55:53.479Z,2.10
2018-03-22T21:58:23.176Z,2.07
2018-03-22T22:00:52.774Z,2.37
2018-03-22T22:03:22.432Z,2.10
2018-03-22T22:05:52.019Z,2.27
2018-03-22T22:08:21.541Z,2.33
2018-03-22T22:10:51.224Z,1.70
2018-03-22T22:13:20.887Z,2.40
2018-03-22T22:15:50.403Z,2.30
2018-03-22T22:18:19.981Z,1.93
2018-03-22T22:20:49.510Z,2.00
2018-03-22T22:23:19.044Z,2.30
2018-03-22T22:25:54.634Z,2.40
2018-03-22T22:28:24.123Z,2.03
2018-03-22T22:30:57.222Z,2.17
2018-03-22T22:33:26.938Z,2.50
2018-03-22T22:35:57.431Z,3.30
2018-03-22T22:38:27.026Z,2.90
2018-03-22T22:40:58.896Z,3.07
2018-03-22T22:43:28.706Z,2.93
2018-03-22T22:45:58.210Z,3.07
2018-03-22T22:48:27.770Z,3.07
2018-03-22T22:51:03.112Z,2.53
2018-03-22T22:53:32.666Z,2.37
2018-03-22T22:56:02.225Z,2.47
2018-03-22T22:58:38.067Z,2.93
2018-03-22T23:01:07.932Z,2.30
2018-03-22T23:03:43.154Z,1.87
2018-03-22T23:06:12.674Z,2.00
2018-03-22T23:08:42.162Z,2.30
2018-03-22T23:11:17.667Z,2.20
2018-03-22T23:13:47.193Z,1.80
2018-03-22T23:16:16.731Z,2.07
2018-03-22T23:18:47.218Z,1.90
2018-03-22T23:21:16.754Z,1.93
2018-03-22T23:23:46.309Z,2.30
2018-03-22T23:26:15.849Z,2.20
2018-03-22T23:28:45.377Z,1.93
2018-03-22T23:31:22.663Z,1.80
2018-03-22T23:33:52.164Z,1.93
2018-03-22T23:36:21.714Z,2.20
2018-03-22T23:38:51.226Z,1.50
2018-03-22T23:41:20.714Z,2.87
2018-03-22T23:43:50.574Z,1.63
2018-03-22T23:46:20.065Z,2.10
2018-03-22T23:48:50.017Z,2.20
2018-03-22T23:51:19.508Z,2.17
2018-03-22T23:53:49.050Z,2.10
2018-03-22T23:56:19.378Z,1.83
2018-03-22T23:58:48.974Z,2.17
